Time;durP1;ratioP1;P1;durP2;ratioP2;P2;SDS_P1;SDS_P2;PMS_P1;PMS_P2;Temp;Humidity;BMP_temperature;BMP_pressure;BME280_temperature;BME280_humidity;BME280_pressure;Samples;Min_cycle;Max_cycle;Signal;HPM_P1;HPM_P2
2024/01/20 00:00:32;;;;;;;13.40;7.60;;;;;;;;;;10465432;28;20041;-88
2024/01/20 00:05:37;;;;;;;14.38;7.63;;;;;;;;;;10456569;28;20044;-87
2024/01/20 00:10:40;;;;;;;14.63;7.80;;;;;;;;;;10454346;28;20049;-88
2024/01/20 00:15:44;;;;;;;14.38;8.00;;;;;;;;;;10459990;28;20041;-87
2024/01/20 00:20:48;;;;;;;22.08;10.32;;;;;;;;;;10451295;28;20122;-87
2024/01/20 00:25:52;;;;;;;17.50;9.93;;;;;;;;;;10476397;28;20049;-86
2024/01/20 00:30:55;;;;;;;20.05;9.93;;;;;;;;;;10478850;28;20081;-88
2024/01/20 00:36:00;;;;;;;21.77;11.23;;;;;;;;;;10453466;28;20437;-87
2024/01/20 00:41:04;;;;;;;16.37;9.03;;;;;;;;;;10471786;28;20539;-87
2024/01/20 00:46:07;;;;;;;14.85;8.57;;;;;;;;;;10457946;28;20316;-87
2024/01/20 00:51:12;;;;;;;19.05;8.77;;;;;;;;;;10456319;28;20083;-87
2024/01/20 00:56:15;;;;;;;19.30;9.80;;;;;;;;;;10456247;28;20126;-87
2024/01/20 01:01:19;;;;;;;18.23;9.32;;;;;;;;;;10453257;28;20055;-88
2024/01/20 01:06:24;;;;;;;16.45;8.80;;;;;;;;;;10454626;28;20124;-87
2024/01/20 01:11:28;;;;;;;13.27;7.40;;;;;;;;;;10456788;28;20053;-87
2024/01/20 01:16:31;;;;;;;14.60;7.22;;;;;;;;;;10457618;28;20057;-87
2024/01/20 01:21:36;;;;;;;16.13;7.50;;;;;;;;;;10465857;28;20094;-88
2024/01/20 01:26:39;;;;;;;12.03;6.37;;;;;;;;;;10469884;28;20126;-87
2024/01/20 01:31:44;;;;;;;12.52;6.97;;;;;;;;;;10454237;28;20294;-88
2024/01/20 01:36:49;;;;;;;13.73;6.40;;;;;;;;;;10469635;28;20738;-87
2024/01/20 01:41:52;;;;;;;10.27;5.88;;;;;;;;;;10458497;28;20044;-87
2024/01/20 01:46:56;;;;;;;10.32;6.25;;;;;;;;;;10464452;28;20595;-87
2024/01/20 01:52:01;;;;;;;12.15;7.03;;;;;;;;;;10460250;28;20052;-86
2024/01/20 01:57:06;;;;;;;12.50;6.75;;;;;;;;;;10465145;28;20510;-87
2024/01/20 02:02:10;;;;;;;8.70;5.28;;;;;;;;;;10453792;28;20045;-88
2024/01/20 02:07:16;;;;;;;10.43;6.13;;;;;;;;;;10452432;28;20380;-87
2024/01/20 02:12:20;;;;;;;13.63;6.75;;;;;;;;;;10481888;28;20049;-87
2024/01/20 02:17:23;;;;;;;13.27;7.13;;;;;;;;;;10481108;28;20684;-87
2024/01/20 02:22:28;;;;;;;12.27;7.07;;;;;;;;;;10467087;28;20079;-87
2024/01/20 02:27:31;;;;;;;11.67;6.93;;;;;;;;;;10453490;28;20041;-87
2024/01/20 02:32:35;;;;;;;9.98;6.03;;;;;;;;;;10460771;28;20076;-87
2024/01/20 02:37:40;;;;;;;12.95;6.80;;;;;;;;;;10461620;28;20507;-87
2024/01/20 02:42:43;;;;;;;8.80;5.55;;;;;;;;;;10460259;28;20048;-87
2024/01/20 02:47:47;;;;;;;11.75;7.05;;;;;;;;;;10470257;28;20040;-87
2024/01/20 02:52:52;;;;;;;10.57;6.07;;;;;;;;;;10482583;28;20060;-87
2024/01/20 02:57:56;;;;;;;;;;;;;;;;;;10434595;28;20056;-86
2024/01/20 03:02:59;;;;;;;11.02;6.97;;;;;;;;;;10452378;28;20502;-87
2024/01/20 03:08:04;;;;;;;9.48;5.50;;;;;;;;;;10475587;28;20054;-87
2024/01/20 03:13:08;;;;;;;8.57;5.35;;;;;;;;;;10456829;28;20056;-87
2024/01/20 03:18:11;;;;;;;13.10;7.85;;;;;;;;;;10454728;28;20052;-87
2024/01/20 03:23:16;;;;;;;11.23;6.70;;;;;;;;;;10451558;28;20385;-87
2024/01/20 03:28:20;;;;;;;11.63;6.45;;;;;;;;;;10445076;28;20051;-88
2024/01/20 03:33:23;;;;;;;9.75;6.07;;;;;;;;;;10446106;28;20139;-86
2024/01/20 03:38:28;;;;;;;13.23;6.38;;;;;;;;;;10461626;28;20049;-86
2024/01/20 03:43:31;;;;;;;10.13;6.25;;;;;;;;;;10468763;28;20143;-87
2024/01/20 03:48:35;;;;;;;12.20;7.03;;;;;;;;;;10473979;28;20040;-86
2024/01/20 03:53:40;;;;;;;10.65;6.55;;;;;;;;;;10451416;28;20052;-87
2024/01/20 03:58:43;;;;;;;10.85;6.72;;;;;;;;;;10445728;28;20126;-87
2024/01/20 04:03:47;;;;;;;13.05;6.50;;;;;;;;;;10442622;28;20115;-86
2024/01/20 04:08:51;;;;;;;11.00;6.60;;;;;;;;;;10439280;28;20044;-87
2024/01/20 04:13:55;;;;;;;12.43;7.40;;;;;;;;;;10449122;28;20109;-87
2024/01/20 04:18:58;;;;;;;12.50;7.20;;;;;;;;;;10465885;28;20128;-86
2024/01/20 04:24:03;;;;;;;14.82;7.40;;;;;;;;;;10450586;28;20037;-86
2024/01/20 04:29:07;;;;;;;12.77;7.88;;;;;;;;;;10453356;28;20048;-85
2024/01/20 04:34:10;;;;;;;12.90;7.63;;;;;;;;;;10457682;28;20044;-87
2024/01/20 04:39:15;;;;;;;15.65;8.00;;;;;;;;;;10448875;28;20048;-87
2024/01/20 04:44:19;;;;;;;14.75;7.65;;;;;;;;;;10457501;28;20044;-87
2024/01/20 04:49:22;;;;;;;13.93;8.30;;;;;;;;;;10475267;28;20044;-86
2024/01/20 04:54:27;;;;;;;19.92;10.00;;;;;;;;;;10477942;28;20047;-87
2024/01/20 04:59:31;;;;;;;21.20;10.23;;;;;;;;;;10445349;28;20056;-87
2024/01/20 05:04:34;;;;;;;22.55;10.20;;;;;;;;;;10450794;28;20086;-87
2024/01/20 05:09:54;;;;;;;15.07;8.50;;;;;;;;;;10497320;22;20735;-78
2024/01/20 05:14:59;;;;;;;11.57;6.40;;;;;;;;;;10499510;28;20045;-78
2024/01/20 05:20:03;;;;;;;12.95;6.38;;;;;;;;;;10452110;28;20060;-78
2024/01/20 05:25:08;;;;;;;17.40;7.65;;;;;;;;;;10433694;28;20061;-79
2024/01/20 05:30:13;;;;;;;14.52;7.05;;;;;;;;;;10443381;28;20055;-78
2024/01/20 05:35:18;;;;;;;16.67;8.07;;;;;;;;;;10450700;28;20037;-78
2024/01/20 05:40:23;;;;;;;16.23;8.20;;;;;;;;;;10447819;28;20053;-78
2024/01/20 05:45:26;;;;;;;14.90;7.30;;;;;;;;;;10450571;28;20524;-78
2024/01/20 05:50:30;;;;;;;15.77;7.03;;;;;;;;;;10447922;28;20054;-78
2024/01/20 05:55:35;;;;;;;11.90;6.72;;;;;;;;;;10434418;28;20036;-78
2024/01/20 06:00:38;;;;;;;10.93;6.25;;;;;;;;;;10446422;28;20053;-78
2024/01/20 06:05:42;;;;;;;10.77;6.47;;;;;;;;;;10433081;28;20037;-78
2024/01/20 06:10:47;;;;;;;11.30;6.82;;;;;;;;;;10452219;28;20044;-78
2024/01/20 06:15:50;;;;;;;13.25;6.40;;;;;;;;;;10435221;28;20053;-79
2024/01/20 06:20:54;;;;;;;11.50;6.93;;;;;;;;;;10431592;28;20064;-79
2024/01/20 06:25:59;;;;;;;10.32;6.35;;;;;;;;;;10451271;28;20132;-78
2024/01/20 06:31:03;;;;;;;8.35;5.88;;;;;;;;;;10430088;28;20045;-78
2024/01/20 06:36:07;;;;;;;12.27;6.70;;;;;;;;;;10431428;28;20053;-78
2024/01/20 06:41:12;;;;;;;11.98;6.57;;;;;;;;;;10448219;28;20057;-78
2024/01/20 06:46:15;;;;;;;12.75;6.60;;;;;;;;;;10447846;28;20122;-78
2024/01/20 06:51:22;;;;;;;11.95;6.60;;;;;;;;;;10436283;28;20063;-78
2024/01/20 06:56:27;;;;;;;11.23;6.43;;;;;;;;;;10429098;28;20049;-79
2024/01/20 07:01:31;;;;;;;13.30;7.05;;;;;;;;;;10426532;28;20095;-78
2024/01/20 07:06:37;;;;;;;11.82;6.93;;;;;;;;;;10445459;28;20520;-78
2024/01/20 07:11:42;;;;;;;15.80;7.20;;;;;;;;;;10451594;28;20049;-80
2024/01/20 07:16:45;;;;;;;;;;;;;;;;;;10453224;28;20132;-79
2024/01/20 07:21:49;;;;;;;14.77;8.38;;;;;;;;;;10451016;28;19925;-80
2024/01/20 07:26:54;;;;;;;12.48;7.35;;;;;;;;;;10424715;28;20542;-80
2024/01/20 07:31:57;;;;;;;15.27;8.02;;;;;;;;;;10448283;28;20395;-79
2024/01/20 07:37:01;;;;;;;14.23;7.43;;;;;;;;;;10447658;28;20132;-80
2024/01/20 07:42:06;;;;;;;14.35;7.78;;;;;;;;;;10447373;28;20486;-80
2024/01/20 07:47:10;;;;;;;12.35;7.10;;;;;;;;;;10433988;28;20045;-80
2024/01/20 07:52:14;;;;;;;18.80;9.87;;;;;;;;;;10430667;28;20055;-80
2024/01/20 07:57:19;;;;;;;22.02;10.38;;;;;;;;;;10449021;28;20461;-79
2024/01/20 08:02:25;;;;;;;22.95;11.45;;;;;;;;;;10446197;28;20619;-79
2024/01/20 08:07:28;;;;;;;24.33;12.23;;;;;;;;;;10436285;28;20540;-80
2024/01/20 08:12:33;;;;;;;22.38;11.00;;;;;;;;;;10438084;28;20118;-79
2024/01/20 08:17:37;;;;;;;27.63;12.48;;;;;;;;;;10432702;28;20073;-80
2024/01/20 08:22:41;;;;;;;32.75;13.18;;;;;;;;;;10426772;28;20052;-80
2024/01/20 08:27:46;;;;;;;34.08;13.90;;;;;;;;;;10453837;28;20057;-79
2024/01/20 08:32:49;;;;;;;34.80;14.63;;;;;;;;;;10436651;28;20072;-79
2024/01/20 08:37:53;;;;;;;25.13;11.05;;;;;;;;;;10451513;28;20053;-79
2024/01/20 08:42:58;;;;;;;18.67;8.48;;;;;;;;;;10444676;28;20115;-79
2024/01/20 08:48:05;;;;;;;16.42;7.50;;;;;;;;;;10442746;28;20418;-79
2024/01/20 08:53:09;;;;;;;17.17;9.32;;;;;;;;;;10448582;28;20871;-79
2024/01/20 08:58:14;;;;;;;23.27;10.40;;;;;;;;;;10442230;28;20059;-79
2024/01/20 09:03:17;;;;;;;21.52;10.77;;;;;;;;;;10429111;28;20053;-80
2024/01/20 09:08:21;;;;;;;21.23;10.38;;;;;;;;;;10449530;28;20055;-80
2024/01/20 09:13:26;;;;;;;20.75;10.27;;;;;;;;;;10427118;28;20065;-80
2024/01/20 09:18:30;;;;;;;23.57;10.30;;;;;;;;;;10428736;28;20052;-79
2024/01/20 09:23:33;;;;;;;22.25;10.73;;;;;;;;;;10428363;28;20386;-79
2024/01/20 09:28:38;;;;;;;24.52;11.07;;;;;;;;;;10429508;28;20049;-80
2024/01/20 09:33:44;;;;;;;21.48;10.77;;;;;;;;;;10421496;28;20053;-80
2024/01/20 09:38:48;;;;;;;25.90;11.25;;;;;;;;;;10446396;28;20190;-80
2024/01/20 09:43:53;;;;;;;24.70;11.82;;;;;;;;;;10442911;28;20060;-80
2024/01/20 09:48:59;;;;;;;27.42;13.32;;;;;;;;;;10425911;28;20049;-80
2024/01/20 09:54:03;;;;;;;25.25;12.32;;;;;;;;;;10453543;28;20326;-80
2024/01/20 09:59:10;;;;;;;21.25;11.32;;;;;;;;;;10452766;28;20059;-80
2024/01/20 10:04:16;;;;;;;20.17;10.82;;;;;;;;;;10451823;28;20056;-80
2024/01/20 10:09:19;;;;;;;17.58;9.10;;;;;;;;;;10447791;28;20547;-80
2024/01/20 10:14:24;;;;;;;19.70;10.45;;;;;;;;;;10448566;28;20060;-80
2024/01/20 10:19:28;;;;;;;18.33;9.75;;;;;;;;;;10451155;28;20045;-80
2024/01/20 10:24:32;;;;;;;23.98;12.50;;;;;;;;;;10442188;28;20578;-80
2024/01/20 10:29:37;;;;;;;23.63;11.57;;;;;;;;;;10430013;28;20080;-80
2024/01/20 10:34:41;;;;;;;22.57;10.33;;;;;;;;;;10457221;28;20056;-80
2024/01/20 10:39:45;;;;;;;21.88;10.85;;;;;;;;;;10455390;28;20640;-80
2024/01/20 10:44:57;;;;;;;21.33;9.45;;;;;;;;;;10455319;28;20127;-80
2024/01/20 10:50:04;;;;;;;19.48;10.18;;;;;;;;;;10445950;28;20634;-81
2024/01/20 10:55:08;;;;;;;24.70;12.52;;;;;;;;;;10448531;28;20095;-80
2024/01/20 11:00:15;;;;;;;24.08;12.60;;;;;;;;;;10444629;28;20042;-80
2024/01/20 11:05:22;;;;;;;24.73;13.13;;;;;;;;;;10430919;28;20045;-80
2024/01/20 11:10:29;;;;;;;23.40;12.52;;;;;;;;;;10446521;23;20064;-80
2024/01/20 11:15:34;;;;;;;18.30;9.88;;;;;;;;;;10461646;28;20056;-81
2024/01/20 11:20:38;;;;;;;20.58;10.50;;;;;;;;;;10456905;28;20524;-81
2024/01/20 11:25:46;;;;;;;18.15;10.45;;;;;;;;;;10457303;28;20544;-80
2024/01/20 11:30:51;;;;;;;16.85;9.10;;;;;;;;;;10464642;28;20114;-81
2024/01/20 11:35:54;;;;;;;17.80;9.20;;;;;;;;;;10460774;28;20068;-81
2024/01/20 11:41:47;;;;;;;15.45;8.52;;;;;;;;;;10461600;28;20436;-78
2024/01/20 12:00:19;;;;;;;13.40;7.03;;;;;;;;;;10432001;28;20413;-79
2024/01/20 12:05:25;;;;;;;11.98;7.35;;;;;;;;;;10442504;28;20045;-80
2024/01/20 12:10:33;;;;;;;17.13;9.67;;;;;;;;;;10458682;28;20068;-79
2024/01/20 12:15:38;;;;;;;15.38;8.98;;;;;;;;;;10458443;28;20426;-79
2024/01/20 12:20:45;;;;;;;25.52;13.15;;;;;;;;;;10458787;28;20135;-78
2024/01/20 12:25:53;;;;;;;18.88;10.93;;;;;;;;;;10453112;28;20052;-79
2024/01/20 12:31:04;;;;;;;16.50;9.98;;;;;;;;;;10463415;28;20056;-78
2024/01/20 12:36:14;;;;;;;21.50;11.70;;;;;;;;;;10447549;28;20052;-80
2024/01/20 12:41:26;;;;;;;21.48;12.55;;;;;;;;;;10447980;28;20525;-79
2024/01/20 12:46:43;;;;;;;13.43;8.43;;;;;;;;;;10440332;28;20127;-79
2024/01/20 12:52:09;;;;;;;22.92;11.93;;;;;;;;;;10450300;28;20074;-79
2024/01/20 12:57:19;;;;;;;25.77;13.77;;;;;;;;;;10451828;28;20045;-79
2024/01/20 13:02:49;;;;;;;21.33;10.98;;;;;;;;;;10463352;28;20128;-79
2024/01/20 13:08:42;;;;;;;;;;;;;;;;;;;;;
2024/01/20 13:14:00;;;;;;;25.08;13.07;;;;;;;;;;10446721;28;20073;-79
2024/01/20 13:19:43;;;;;;;22.58;11.90;;;;;;;;;;10450115;28;20689;-79
2024/01/20 13:26:01;;;;;;;;;;;;;;;;;;;;;
2024/01/20 13:57:37;;;;;;;19.27;11.20;;;;;;;;;;9904893;29;20053;-79
2024/01/20 14:09:20;;;;;;;20.35;11.63;;;;;;;;;;10411399;28;20041;-81
2024/01/20 14:14:48;;;;;;;23.55;13.30;;;;;;;;;;10436284;28;20110;-81
2024/01/20 14:19:58;;;;;;;18.83;11.73;;;;;;;;;;10452838;28;20049;-81
2024/01/20 14:31:32;;;;;;;;;;;;;;;;;;;;;
2024/01/20 14:53:19;;;;;;;13.88;7.68;;;;;;;;;;10218290;28;20411;-86
2024/01/20 14:58:22;;;;;;;14.38;8.98;;;;;;;;;;10204674;28;20075;-89
2024/01/20 15:03:26;;;;;;;14.25;8.02;;;;;;;;;;10232015;28;20033;-89
2024/01/20 15:08:31;;;;;;;12.55;7.43;;;;;;;;;;10239915;28;20578;-89
2024/01/20 15:13:34;;;;;;;12.38;6.40;;;;;;;;;;10212162;28;20063;-88
2024/01/20 15:18:38;;;;;;;12.75;7.15;;;;;;;;;;10248811;28;20586;-90
2024/01/20 15:23:43;;;;;;;12.60;7.65;;;;;;;;;;10258346;28;20048;-89
2024/01/20 15:28:47;;;;;;;14.85;8.85;;;;;;;;;;10219486;28;20036;-90
2024/01/20 15:33:52;;;;;;;16.55;8.20;;;;;;;;;;10239234;28;20051;-89
2024/01/20 15:38:56;;;;;;;13.10;7.97;;;;;;;;;;10193403;28;20044;-89
2024/01/20 15:44:03;;;;;;;12.48;7.32;;;;;;;;;;10211322;28;20143;-89
2024/01/20 15:49:09;;;;;;;12.35;7.70;;;;;;;;;;10212257;28;20095;-89
2024/01/20 15:54:14;;;;;;;13.75;8.13;;;;;;;;;;10161780;28;20086;-89
2024/01/20 15:59:23;;;;;;;15.88;9.50;;;;;;;;;;10175984;28;20040;-89
2024/01/20 16:04:27;;;;;;;14.63;8.95;;;;;;;;;;10187892;28;20048;-89
2024/01/20 16:09:32;;;;;;;15.35;8.82;;;;;;;;;;10158697;28;20524;-89
2024/01/20 16:14:36;;;;;;;14.88;8.00;;;;;;;;;;10193713;28;20106;-89
2024/01/20 16:19:40;;;;;;;15.10;8.20;;;;;;;;;;10184461;28;20063;-89
2024/01/20 16:24:46;;;;;;;16.98;8.43;;;;;;;;;;10163016;28;20115;-89
2024/01/20 16:29:50;;;;;;;14.60;8.57;;;;;;;;;;10167985;28;20037;-89
2024/01/20 16:34:54;;;;;;;15.50;9.10;;;;;;;;;;10201133;28;20083;-89
2024/01/20 16:40:00;;;;;;;14.57;8.98;;;;;;;;;;10219098;28;20072;-89
2024/01/20 16:45:06;;;;;;;16.67;9.20;;;;;;;;;;10203313;28;20052;-89
2024/01/20 16:50:10;;;;;;;16.70;9.27;;;;;;;;;;10183052;28;20445;-89
2024/01/20 16:55:15;;;;;;;18.23;10.05;;;;;;;;;;10203045;28;20822;-89
2024/01/20 17:00:21;;;;;;;18.92;9.57;;;;;;;;;;10213485;28;20040;-89
2024/01/20 17:05:25;;;;;;;17.53;9.77;;;;;;;;;;10184395;28;20112;-88
2024/01/20 17:10:30;;;;;;;21.38;10.40;;;;;;;;;;10241190;23;20355;-79
2024/01/20 17:15:33;;;;;;;24.13;11.73;;;;;;;;;;10216123;28;20162;-78
2024/01/20 17:20:37;;;;;;;18.95;11.43;;;;;;;;;;10186283;28;20043;-78
2024/01/20 17:25:42;;;;;;;24.85;12.13;;;;;;;;;;10195560;28;20054;-78
2024/01/20 17:30:45;;;;;;;23.05;11.82;;;;;;;;;;10193843;28;20046;-79
2024/01/20 17:35:52;;;;;;;18.80;10.98;;;;;;;;;;10209040;28;20134;-78
2024/01/20 17:40:57;;;;;;;20.75;9.60;;;;;;;;;;10227046;28;20707;-79
2024/01/20 17:46:00;;;;;;;17.17;8.30;;;;;;;;;;10212603;28;20047;-78
2024/01/20 17:51:04;;;;;;;17.02;9.18;;;;;;;;;;10227433;28;20039;-78
2024/01/20 17:56:09;;;;;;;19.02;9.77;;;;;;;;;;10206684;28;20055;-79
2024/01/20 18:01:12;;;;;;;14.55;7.53;;;;;;;;;;10242261;28;20118;-79
2024/01/20 18:06:16;;;;;;;14.63;8.88;;;;;;;;;;10275827;28;20067;-78
2024/01/20 18:11:20;;;;;;;24.90;11.70;;;;;;;;;;10233651;28;20044;-78
2024/01/20 18:16:24;;;;;;;21.02;11.25;;;;;;;;;;10246087;28;20044;-78
2024/01/20 18:21:27;;;;;;;22.70;11.18;;;;;;;;;;10233884;28;20130;-79
2024/01/20 18:26:32;;;;;;;28.60;14.55;;;;;;;;;;10217713;28;20510;-80
2024/01/20 18:31:35;;;;;;;28.73;14.95;;;;;;;;;;10215057;28;20047;-79
2024/01/20 18:36:39;;;;;;;24.48;12.18;;;;;;;;;;10235342;28;20071;-79
2024/01/20 18:41:43;;;;;;;31.23;13.88;;;;;;;;;;10208450;28;20047;-80
2024/01/20 18:46:49;;;;;;;22.52;11.30;;;;;;;;;;10206036;28;20044;-79
2024/01/20 18:51:53;;;;;;;26.75;12.02;;;;;;;;;;10219639;28;20482;-79
2024/01/20 18:56:58;;;;;;;19.77;10.73;;;;;;;;;;10212531;28;20422;-79
2024/01/20 19:02:01;;;;;;;16.50;10.00;;;;;;;;;;10220892;28;20048;-80
2024/01/20 19:07:05;;;;;;;15.07;8.55;;;;;;;;;;10209218;28;20522;-79
2024/01/20 19:12:10;;;;;;;17.85;8.25;;;;;;;;;;10240290;28;20134;-80
2024/01/20 19:17:14;;;;;;;19.37;9.37;;;;;;;;;;10212234;28;20412;-79
2024/01/20 19:22:19;;;;;;;15.18;7.63;;;;;;;;;;10231278;28;20390;-79
2024/01/20 19:27:26;;;;;;;19.42;8.35;;;;;;;;;;10235785;28;20076;-79
2024/01/20 19:32:29;;;;;;;16.83;8.95;;;;;;;;;;10224581;28;20071;-79
2024/01/20 19:37:32;;;;;;;21.15;10.55;;;;;;;;;;10202055;28;20122;-79
2024/01/20 19:42:37;;;;;;;25.08;11.52;;;;;;;;;;10240527;28;20058;-79
2024/01/20 19:47:40;;;;;;;20.73;9.70;;;;;;;;;;10229721;28;20048;-79
2024/01/20 19:52:44;;;;;;;18.10;8.57;;;;;;;;;;10230301;28;20451;-80
2024/01/20 19:57:48;;;;;;;19.88;9.20;;;;;;;;;;10233358;28;20072;-79
2024/01/20 20:02:52;;;;;;;22.15;9.73;;;;;;;;;;10202124;28;20044;-79
2024/01/20 20:07:55;;;;;;;24.48;11.85;;;;;;;;;;10212177;28;20067;-79
2024/01/20 20:13:00;;;;;;;23.85;10.85;;;;;;;;;;10226116;28;20056;-79
2024/01/20 20:18:04;;;;;;;21.60;10.13;;;;;;;;;;10216896;28;20490;-79
2024/01/20 20:23:08;;;;;;;19.08;10.20;;;;;;;;;;10210301;28;20047;-79
2024/01/20 20:28:12;;;;;;;21.10;9.95;;;;;;;;;;10222314;28;20090;-79
2024/01/20 20:33:16;;;;;;;22.48;11.27;;;;;;;;;;10199399;28;20045;-79
2024/01/20 20:38:19;;;;;;;20.63;9.93;;;;;;;;;;10120229;28;20138;-79
2024/01/20 20:43:24;;;;;;;23.52;10.40;;;;;;;;;;10103367;28;20041;-79
2024/01/20 20:48:30;;;;;;;21.10;11.03;;;;;;;;;;10085767;28;20051;-79
2024/01/20 20:53:33;;;;;;;20.98;10.27;;;;;;;;;;10084275;28;20125;-79
2024/01/20 20:58:38;;;;;;;25.92;12.50;;;;;;;;;;10081979;28;20554;-79
2024/01/20 21:03:42;;;;;;;26.05;11.52;;;;;;;;;;10081244;28;20112;-78
2024/01/20 21:08:45;;;;;;;26.05;11.73;;;;;;;;;;10081375;28;20552;-79
2024/01/20 21:13:50;;;;;;;24.67;11.07;;;;;;;;;;10081718;28;20049;-79
2024/01/20 21:18:54;;;;;;;25.35;11.57;;;;;;;;;;10083890;28;20045;-78
2024/01/20 21:24:01;;;;;;;25.73;12.05;;;;;;;;;;10082303;28;20136;-79
2024/01/20 21:29:06;;;;;;;27.00;12.07;;;;;;;;;;10079396;28;20055;-79
2024/01/20 21:34:09;;;;;;;24.33;10.65;;;;;;;;;;10079437;28;20147;-79
2024/01/20 21:39:13;;;;;;;31.15;11.30;;;;;;;;;;10095791;28;20052;-79
2024/01/20 21:44:18;;;;;;;29.02;11.98;;;;;;;;;;10084991;28;20059;-80
2024/01/20 21:49:22;;;;;;;26.47;11.40;;;;;;;;;;10082800;28;20045;-79
2024/01/20 21:54:28;;;;;;;24.45;10.70;;;;;;;;;;10076987;28;20887;-79
2024/01/20 21:59:33;;;;;;;26.48;11.20;;;;;;;;;;10084922;28;20064;-79
2024/01/20 22:04:36;;;;;;;39.23;16.23;;;;;;;;;;10096286;28;20055;-79
2024/01/20 22:09:39;;;;;;;42.08;18.70;;;;;;;;;;10079047;28;20056;-78
2024/01/20 22:14:44;;;;;;;33.35;14.40;;;;;;;;;;10089877;28;20045;-79
2024/01/20 22:19:47;;;;;;;28.60;13.87;;;;;;;;;;10073646;28;20052;-78
2024/01/20 22:24:51;;;;;;;28.48;12.77;;;;;;;;;;10078473;28;20060;-78
2024/01/20 22:29:56;;;;;;;27.17;12.07;;;;;;;;;;10092424;28;20079;-78
2024/01/20 22:34:59;;;;;;;28.25;12.45;;;;;;;;;;10080285;28;20067;-79
2024/01/20 22:40:03;;;;;;;32.42;14.60;;;;;;;;;;10078648;28;20135;-78
2024/01/20 22:45:11;;;;;;;28.98;12.82;;;;;;;;;;10078599;28;20552;-78
2024/01/20 22:50:14;;;;;;;53.28;20.10;;;;;;;;;;10079449;28;20049;-78
2024/01/20 22:55:18;;;;;;;36.50;16.00;;;;;;;;;;10079024;28;20053;-78
2024/01/20 23:00:25;;;;;;;30.73;11.80;;;;;;;;;;10082592;28;20057;-79
2024/01/20 23:05:29;;;;;;;36.35;15.73;;;;;;;;;;10086966;28;20130;-79
2024/01/20 23:10:32;;;;;;;30.52;13.90;;;;;;;;;;10130924;23;20164;-82
2024/01/20 23:15:39;;;;;;;31.33;12.45;;;;;;;;;;10123020;28;20052;-82
2024/01/20 23:20:43;;;;;;;35.25;13.50;;;;;;;;;;10126853;28;20044;-82
2024/01/20 23:25:47;;;;;;;34.07;15.10;;;;;;;;;;10135977;28;20068;-82
2024/01/20 23:30:52;;;;;;;43.88;16.63;;;;;;;;;;10135843;28;20052;-82
2024/01/20 23:35:56;;;;;;;34.40;15.77;;;;;;;;;;10118094;28;20048;-82
2024/01/20 23:40:59;;;;;;;45.20;18.48;;;;;;;;;;10119546;28;20052;-82
2024/01/20 23:46:05;;;;;;;39.53;16.77;;;;;;;;;;10130060;28;20115;-82
2024/01/20 23:51:08;;;;;;;43.83;18.05;;;;;;;;;;10150558;28;20064;-82
2024/01/20 23:56:12;;;;;;;31.33;12.73;;;;;;;;;;10122428;28;20048;-82
